Timeline UpdatesTrip UpdatesNews PostsPvt PostsTravel TipsAdmin PostsConv PostsFollowed PostsChat RequestsBlog PostsPNR Posts

Disclaimer
Search
 
 
Fri Aug 22, 2014 21:13:05 ISTHomeTrainsΣChainsAtlasPNRForumGalleryNewsFAQTripsMembersLoginFeedback
No Recent News for this Train
Other Trains in the News **new
Latest...
.
Mon Nov 18, 2013 (08:49PM)
⇐ Return Journey: Train# 14650

14649/Saryu Yamuna Express

Nov 18 2013 (8:48PM)
Change Departure Station:
Change Arrival Station:
Post a Train Travel TipPost a Train Travel Tip **new
Post a Comment/Question/Picture/VideoPost a Comment/Question/Picture/Video
Pantry/Catering
✕ NO Pantry Car
✕ NO Catering
Loco/Rake Reversals
SPJ/Samastipur Junction (9); SHG/Shahganj Junction (4);
RSA - Rake Sharing
14673/74 Shaheed Express.
Rake/Coach Composition
LOCO,SLR,UR,UR,S1,S2,S3,S4,B1,AB1,S5,S6,S7,UR,UR,UR,UR,UR,UR,UR,UR,SLR
Loco
JYG-DLI=>TKD WDM 3A DLI-ASR=>GZB WAP 5/7
News    PNR    Forum    Time-Table    Availability    Fare Chart    Map    Arr/Dep History    Trips    Gallery    ΣChains    X/O    Timeline    
Travel Time: 40h 55m    60 halts    Distance: 1671 km    Avg Speed: 40 km/hr
Type: Mail/Express
Zone: NR/Northern
Departs @ 06:30 (Avg 27m late)
Platform# ???
S T  F 
Jaynagar/JYG 
Arrives @ 23:25 +1 night (Avg 1h 0m late)
Platform# 4
 M W  S
Amritsar Junction/ASR 

60 halts. 273 intermediate Stations between Jaynagar and Amritsar Junction

Show ALL intermediate Stations  Show Old Time-Table

#CodeStation NameX/OArrivesAvgDepartsAvgHaltPFDay#KmSpeedElevZoneAddress
1JYG»Jaynagar (3)»  -06:30+27--10.05268mECRDistt: Madhubani, Bihar
2KJIKhajauli  06:44+3306:45+341m--112.05170mECRMadhubani, Bihar
3RJARajanagar  06:56+3806:57+391m--121.33565mECRRajnagar Distt: Madhubani, Bihar
4MBIMadhubani (3)  07:14+3707:15+441m--131.26062mECRMadhubani, Bihar
5PDWPandaulX  07:24+4707:25+491m--140.22159mECRMadhubani, Bihar
6SKISakri Junction (5)X  07:47+4207:52+445m--148.15055mECRMadhubani, Bihar
7TRSTarsarai  08:00+4708:01+481m--154.74454mECRDarbhanga, Bihar
8KKHTKakarghatti  08:10+4908:11+551m--161.31154mECRDarbhanga, Bihar
9DBGDarbhanga Junction (5)X  08:45+3709:13+2728m2167.74354mECRDarbhanga, Bihar
10LSILaheria Sarai (1)X  09:20+2909:25+295m1172.75752mECRDarbhanga, Bihar
11HYTHaiaghat  09:36+3709:37+391m--183.11951mECRDarbhanga, Bihar
12SPJSamastipur Junction (9)10:45+1811:05+2120m--1105.16355mECRSamastipur, Bihar
13MFPMuzaffarpur Junction (6)  11:55+4612:05+4810m31157.26057mECRMuzaffarpur, Bihar
14HJPHajipur Junction (3)X  12:59+1:1113:00+1:231m11211.13355mECR06224-272230, Bihar
15SEESonpur Junction (4)X  13:10+1:2513:20+1:1910m--1216.65056mECRSaran, Bihar
16CPRChhapra Junction (6)X  14:25+1:3914:40+1:4415m--1270.66558mNERDistt: Saran, Bihar
17SIPSuraimanpur  15:07+1:5515:08+1:571m--1299.75460mNERBallia, Uttar Pradesh
18STWSahatwarX  15:29+2:1615:30+2:181m--1318.85263mNERBallia district, Uttar Pradesh
19BUIBallia (3)  15:50+2:2015:55+2:225m--1336.25462mNERBallia, Uttar Pradesh
20RSRRasra (2)  16:31+2:3216:32+2:351m--1368.85170mNERRasra, Uttar Pradesh
21IAAIndara Junction (3)X  17:05+2:3417:07+2:352m--1397.23674mNERMau, Uttar Pradesh
22MAUMau Junction (4)  17:20+2:3517:35+2:2715m41405.05975mNERMau., Uttar Pradesh
23MMAMuhammadabad (2)X  17:57+2:2717:58+2:281m11426.72980mNERMuhammadabad Marg, Uttar Pradesh
24SAASathiaon (1)  18:17+2:1818:18+2:191m11435.84481mNERState Highway 34, Uttar Pradesh
25AMHAzamgarh (2)  18:35+2:1618:40+2:155m11448.36281mNERAzamgarh, Uttar Pradesh
26SMZSarai Mir (2)  19:05+2:1619:06+2:171m11474.24487mNERTowa Ahirana, Uttar Pradesh
27KRNDKhorason Road (2)  19:18+2:1619:19+2:171m11483.02885mNERUttar Pradesh 276304 ?, Uttar Pradesh
28SHGShahganj Junction (4)20:05+2:1620:30+2:2125m--1504.27490mNRShahganj, Uttar Pradesh
29ABPAkbarpur (2)  21:06+2:3221:08+2:332m11548.37492mNRAkbarpur, Uttar Pradesh
30AYAyodhya Junction (3)  21:52+2:3921:53+2:401m11602.21898mNRAyodhya, Uttar Pradesh
31FDFaizabad Junction (5)X  22:15+2:4122:20+2:425m11608.971104mNRFaizabad, Uttar Pradesh
32RDLRudauli (2)  22:52+2:5222:53+2:521m--1647.048112mNRRudauli, Uttar Pradesh
33BBKBarabanki Junction (4)X  00:10+2:3600:11+2:391m--2708.232122mNRPin-225001, Uttar Pradesh
34LKOLucknow Charbagh (9)X  01:05+2:3801:15+2:3810m22736.767123mNR226004, Uttar Pradesh
35SPNShahjahanpur Junction (3)X  03:43+2:4403:48+2:445m--2901.641156mNRShahjahanpur, Uttar Pradesh
36BEBareilly Junction (4)  05:30+2:1905:35+2:245m--2972.168174mNRBareilly, Uttar Pradesh
37RMURampur Junction (3)X  06:31+2:2806:32+2:321m--21035.134190mNRRampur, Uttar Pradesh
38MBMoradabad Junction (7)X  07:20+2:2807:30+2:2910m521062.461201mNRMoradabad, Uttar Pradesh
39AMROAmroha (3)X  08:00+2:3408:01+2:381m221092.936217mNRAmroha, Uttar Pradesh
40HPUHapur Junction (4)X  10:05+1:4410:10+1:435m--21166.439214mNRHapur Jn., Uttar Pradesh
41GZBGhaziabad Junction (6)  11:07+1:4211:09+1:432m321203.126217mNRGhaziabad, Uttar Pradesh
42DLIOld Delhi Junction (16)11:55+1:5012:45+1:4750m321223.213219mNRNear Chandni Chowk Metro Station, Delhi NCT
43SZMDelhi Sabzi Mandi (2)  12:59+1:5713:00+1:581m--21226.269220mNRGulabi Bagh, Delhi NCT
44SNPSonipat (3)  13:35+2:0513:36+2:071m--21266.562225mNRSonipat, Haryana
45PNPPanipat Junction (5)X  14:20+2:0414:25+2:015m321311.771235mNRPanipat, Haryana
46KUNKarnal (3)X  14:54+1:5414:55+1:561m--21346.164253mNRKarnal, Haryana
47KKDEKurukshetra Junction (3)  15:26+1:3815:28+1:392m121379.249260mNRKurukshetra, Haryana
48UMBAmbala Cantt. Junction (7)X  16:20+1:4716:30+1:5010m721421.335278mNRAmbala 133001, Haryana
49UBCAmbala City (3)  16:43+1:5716:44+2:001m321428.877273mNRNH-1, Haryana
50RPJRajpura Junction (3)XO  17:00+2:0017:01+2:051m121449.334272mNRNH-1, Punjab
51SIRSirhind Junction (3)  17:45+1:4817:47+1:512m121474.259271mNRSirhind, Punjab
52GVGMandi Gobindgarh (2)X  17:57+1:5317:58+1:591m221483.954268mNRMandi Gobindgarh, Punjab
53KNNKhanna (3)  18:07+1:5918:08+2:051m121492.144269mNRNH 1, Punjab
54DOADoraha (2)X  18:36+1:5718:37+2:121m121512.425261mNRDoraha, Punjab
55LDHLudhiana Junction (7)X  19:30+1:4919:40+1:5910m221534.933246mNRLudhiana 141001, Punjab
56PHRPhillaur Junction (3)X  20:04+2:0820:05+2:121m221548.068246mNRPhillaur, Punjab
57PGWPhagwara Junction (3)X  20:25+2:1620:26+2:171m221570.670245mNRPhagwara, Punjab
58JRCJalandhar Cantt. Junction (3)X  20:40+2:0820:42+2:092m121586.897239mNRNear Rama Mandi, Punjab
59JUCJalandhar City Junction (5)X  20:45+2:1220:55+2:0910m121591.737239mNRJalandhar 144001, Punjab
60KREKartarpur (2)  21:19+2:2221:20+2:281m221606.354236mNRKartarpur, Punjab
61BEASBeas Junction (2)X  21:44+2:1521:45+2:161m121627.826238mNRBeas, Punjab
62ASR•Amritsar Junction (5)•  23:25+1:00-421670.8-233mNRAmritsar 143002, Punjab
Scroll to Top
Scroll to Bottom